Station: Westmere  

  Atmospheric Gas Attenuation - ITU Rec 676-11   ----------------- dB/100km -----------------
Date Time Temp RH % AH g/m3 Dew Point Wind Direction Speed kph Gust kph Barometer mB Rainfall Since 9am 24GHz 47GHz 76GHz 122GHz 134GHz 241GHz
08/05 12:30 14 85 10.25 11.5 28 41 1025.6 0.4 23.1 29.1 47.1 123.8 121.7 420.0
08/05 12:20 13.5 86 10.06 11.2 28 35 1025.7 0.4 22.7 28.9 46.6 122.4 119.9 413.4
08/05 12:10 13.3 89 10.28 11.5 32 35 1025.7 0.4 23.2 29.4 47.7 125.3 123.3 425.3
08/05 12:00 12.8 91 10.19 11.4 28 39 1025.8 0.4 23.0 29.4 47.6 125.1 122.8 423.6
08/05 11:50 13.1 90 10.27 11.5 28 32 1025.8 0.4 23.2 29.4 47.8 125.5 123.5 426.0
08/05 11:40 12.7 91 10.13 11.2 26 32 1025.8 0.4 22.9 29.3 47.4 124.5 122.1 421.2
08/05 11:30 13 93 10.55 11.9 28 35 1025.9 0.4 23.8 29.9 49.1 128.9 127.7 440.6
08/05 11:20 12.7 94 10.46 11.7 32 33 1025.8 0.4 23.6 29.9 48.8 128.4 126.9 437.7
08/05 11:10 12.8 94 10.53 11.8 26 32 1025.8 0.4 23.8 30.0 49.1 129.0 127.7 440.7
08/05 11:00 12.9 94 10.6 12 24 32 1025.7 0.2 23.9 30.1 49.3 129.7 128.5 443.6
08/05 10:50 12.6 92 10.18 11.3 28 33 1025.7 0.2 23.0 29.4 47.7 125.3 123.0 424.2
08/05 10:40 12.9 91 10.26 11.4 26 30 1025.5 0 23.2 29.4 47.8 125.7 123.6 426.5
08/05 10:30 12.5 93 10.23 11.4 26 35 1025.5 0 23.1 29.5 47.9 126.0 123.9 427.2
08/05 10:20 12.3 94 10.21 11.3 20 26 1025.3 0 23.1 29.6 48.0 126.0 123.9 427.2
08/05 10:10 12.1 95 10.19 11.3 22 30 1025.2 0 23.1 29.6 48.0 126.1 123.9 427.3
08/05 10:00 11.8 95 10 11 22 33 1025.1 0 22.7 29.3 47.3 124.4 121.6 419.3
08/05 09:50 11.8 95 10 11.1 22 26 1025.1 0 22.7 29.3 47.3 124.4 121.6 419.3
08/05 09:40 11.7 95 9.94 10.9 20 26 1025 0 22.6 29.3 47.1 123.8 120.9 416.8
08/05 09:30 11.6 96 9.98 11 24 32 1025 0 22.6 29.4 47.4 124.5 121.7 419.4
08/05 09:20 11.4 95 9.75 10.7 26 33 1025.1 0 22.2 29.0 46.5 122.1 118.7 408.9
08/05 09:10 11.3 95 9.69 10.6 24 30 1025.1 0 22.0 29.0 46.3 121.6 118.0 406.4
08/05 09:00 11.4 96 9.86 10.8 22 33 1025.1 0 22.4 29.2 47.0 123.4 120.3 414.5
08/05 08:50 11.2 97 9.83 10.7 22 26 1025.1 1.4 22.3 29.2 47.0 123.3 120.1 414.0
08/05 08:40 11.1 95 9.57 10.4 19 22 1025.1 1.4 21.8 28.8 45.9 120.5 116.6 401.5
08/05 08:30 11.2 96 9.73 10.6 17 26 1025 1.4 22.1 29.1 46.5 122.2 118.7 409.0
08/05 08:20 11.1 95 9.57 10.4 17 20 1024.9 1.2 21.8 28.8 45.9 120.4 116.5 401.4
08/05 08:10 11 95 9.51 10.3 19 22 1024.8 1.2 21.7 28.7 45.7 119.9 115.8 398.9
08/05 08:00 11 96 9.61 10.4 19 24 1024.7 1 21.9 28.9 46.1 121.0 117.2 403.9
08/05 07:50 10.9 95 9.45 10.2 15 20 1024.5 1 21.5 28.7 45.4 119.3 115.1 396.3
08/05 07:40 10.9 95 9.45 10.2 19 20 1024.3 0.8 21.5 28.6 45.4 119.3 115.1 396.3
08/05 07:30 10.8 96 9.49 10.2 22 30 1024.1 0.8 21.6 28.7 45.7 119.9 115.8 398.7
08/05 07:20 10.8 95 9.39 10.1 24 30 1024 0.8 21.4 28.6 45.2 118.7 114.3 393.7
08/05 07:10 10.8 95 9.39 10.1 15 22 1023.9 0.8 21.4 28.6 45.2 118.7 114.3 393.7
08/05 07:00 10.8 96 9.49 10.2 17 26 1023.8 0.8 21.6 28.7 45.6 119.9 115.7 398.6
08/05 06:50 10.8 95 9.39 10.1 15 20 1023.6 0.8 21.4 28.5 45.2 118.7 114.3 393.6
08/05 06:40 10.8 95 9.39 10.1 15 19 1023.4 0.8 21.4 28.5 45.2 118.7 114.3 393.5
08/05 06:30 10.8 96 9.49 10.2 19 28 1023.5 0.8 21.6 28.7 45.6 119.8 115.7 398.5
08/05 06:20 10.8 95 9.39 10.1 20 24 1023.4 0.8 21.4 28.5 45.2 118.7 114.3 393.5
08/05 06:10 10.8 95 9.39 10 20 26 1023.3 0.8 21.4 28.5 45.2 118.6 114.3 393.5
08/05 06:00 10.7 95 9.33 9.9 20 28 1023.3 0.8 21.3 28.5 45.0 118.1 113.6 391.0
08/05 05:50 10.8 95 9.39 10 20 26 1023.2 0.8 21.4 28.5 45.2 118.6 114.3 393.4
08/05 05:40 10.9 93 9.25 9.9 24 28 1023.1 0.8 21.1 28.3 44.5 116.8 112.1 385.9
08/05 05:30 10.9 94 9.35 10 22 32 1023.1 0.8 21.3 28.4 44.9 118.0 113.5 390.9
08/05 05:20 10.9 93 9.25 9.8 24 30 1023.1 0.8 21.1 28.3 44.5 116.8 112.1 385.9
08/05 05:10 10.9 93 9.25 9.8 24 30 1023 0.8 21.1 28.2 44.5 116.8 112.1 385.9
08/05 05:00 10.9 93 9.25 9.8 24 35 1022.8 0.6 21.1 28.2 44.5 116.8 112.1 385.9
08/05 04:50 10.9 93 9.25 9.8 26 32 1022.7 0.6 21.1 28.2 44.5 116.8 112.1 385.8
08/05 04:40 10.9 93 9.25 9.9 24 35 1022.6 0.6 21.1 28.2 44.5 116.8 112.1 385.8
08/05 04:30 10.9 94 9.35 10 19 28 1022.5 0.6 21.3 28.4 44.9 117.9 113.5 390.7
08/05 04:20 11 93 9.31 10 19 24 1022.5 0.6 21.2 28.3 44.7 117.3 112.8 388.2
08/05 04:10 11.1 92 9.27 9.8 24 33 1022.5 0.6 21.2 28.2 44.5 116.7 112.0 385.8
08/05 04:00 11.2 91 9.23 9.8 26 39 1022.3 0.6 21.1 28.1 44.2 116.1 111.3 383.2
08/05 03:50 11.2 90 9.12 9.6 26 37 1022.3 0.6 20.8 27.9 43.7 114.8 109.8 377.8
08/05 03:40 11.2 90 9.12 9.6 22 28 1022.3 0.6 20.8 27.9 43.7 114.8 109.8 377.8
08/05 03:30 11.3 91 9.28 9.9 28 41 1022.3 0.6 21.2 28.1 44.4 116.5 111.9 385.2
08/05 03:20 11.2 93 9.43 10.1 28 35 1022.2 0.6 21.5 28.4 45.1 118.4 114.1 393.1
08/05 03:10 11.2 93 9.43 10.1 28 32 1022.4 0.6 21.5 28.4 45.1 118.4 114.2 393.1
08/05 03:00 11.1 94 9.47 10.2 22 33 1022.3 0.6 21.6 28.5 45.3 119.0 114.9 395.6
08/05 02:50 11.1 94 9.47 10.1 20 24 1022.3 0.6 21.6 28.5 45.3 119.0 114.9 395.6
08/05 02:40 11.1 94 9.47 10.1 24 32 1022.3 0.6 21.6 28.5 45.3 119.0 114.9 395.6
08/05 02:30 11.1 93 9.37 10 17 26 1022.5 0.6 21.4 28.4 44.9 117.9 113.5 390.7
08/05 02:20 11.1 93 9.37 10 17 22 1022.6 0.6 21.4 28.4 44.9 117.9 113.5 390.7
08/05 02:10 10.9 93 9.25 9.9 15 17 1022.7 0.6 21.1 28.2 44.5 116.8 112.1 385.8
08/05 02:00 10.8 94 9.29 9.9 19 30 1022.7 0.6 21.2 28.3 44.7 117.4 112.8 388.3
08/05 01:50 10.8 93 9.19 9.8 17 20 1022.7 0.6 21.0 28.2 44.3 116.3 111.4 383.3
08/05 01:40 10.8 93 9.19 9.8 19 22 1022.6 0.6 21.0 28.2 44.3 116.3 111.4 383.3
08/05 01:30 10.7 94 9.23 9.8 19 26 1022.9 0.6 21.1 28.3 44.5 116.9 112.1 385.9
08/05 01:20 10.7 95 9.33 9.9 15 15 1023.1 0.6 21.3 28.5 45.0 118.1 113.5 390.9
08/05 01:10 10.5 95 9.22 9.7 22 32 1023.1 0.6 21.1 28.3 44.6 117.1 112.3 386.5
08/05 01:00 10.5 95 9.22 9.7 19 28 1023.2 0.6 21.1 28.3 44.6 117.1 112.3 386.5
08/05 00:50 10.5 95 9.22 9.7 17 24 1023.3 0.6 21.1 28.3 44.6 117.1 112.3 386.5
08/05 00:40 10.4 95 9.16 9.6 17 20 1023.5 0.6 21.0 28.3 44.4 116.6 111.6 384.1
08/05 00:30 10.3 95 9.1 9.5 17 24 1023.5 0.6 20.8 28.2 44.2 116.1 110.9 381.6
08/05 00:20 10.2 95 9.04 9.4 20 26 1023.4 0.6 20.7 28.1 44.0 115.5 110.2 379.1
08/05 00:10 10.2 95 9.04 9.4 20 30 1023.4 0.6 20.7 28.1 44.0 115.5 110.2 379.1
08/05 00:00 10.2 95 9.04 9.4 22 30 1023.3 0.6 20.7 28.1 44.0 115.5 110.2 379.0
07/05 23:50 10.1 95 8.99 9.3 22 30 1023.3 0.6 20.6 28.1 43.9 115.1 109.6 377.0
07/05 23:40 10 95 8.93 9.2 22 28 1023.5 0.6 20.5 28.0 43.7 114.6 108.9 374.6
07/05 23:30 10.1 94 8.89 9.2 20 28 1023.7 0.6 20.4 27.9 43.4 114.0 108.2 372.2
07/05 23:20 10 93 8.74 9 15 20 1024 0.6 20.1 27.7 42.9 112.4 106.3 365.4
07/05 23:10 10 93 8.74 9 17 22 1024 0.6 20.1 27.7 42.9 112.4 106.3 365.4
07/05 23:00 9.9 94 8.78 9 19 33 1023.9 0.6 20.2 27.8 43.1 113.0 107.0 367.8
07/05 22:50 9.8 93 8.63 8.8 20 26 1023.8 0.6 19.8 27.6 42.5 111.4 105.0 360.8
07/05 22:40 9.8 93 8.63 8.8 20 24 1024 0.6 19.8 27.6 42.5 111.5 105.0 360.9
07/05 22:30 9.7 94 8.67 8.8 19 28 1024.3 0.6 19.9 27.7 42.7 112.1 105.7 363.4
07/05 22:20 9.7 93 8.58 8.6 20 22 1024.3 0.6 19.7 27.5 42.4 111.1 104.4 359.0
07/05 22:10 9.7 93 8.58 8.6 22 24 1024.1 0.6 19.7 27.5 42.3 111.0 104.4 358.9
07/05 22:00 9.6 92 8.43 8.4 17 26 1024.3 0.6 19.4 27.3 41.8 109.5 102.5 352.0
07/05 21:50 9.5 93 8.47 8.4 15 20 1024.3 0.6 19.5 27.4 42.0 110.1 103.2 354.5
07/05 21:40 9.3 93 8.36 8.3 20 26 1024.3 0.6 19.3 27.3 41.6 109.1 101.9 350.0
07/05 21:30 9.1 94 8.34 8.2 19 30 1024.3 0.6 19.2 27.3 41.6 109.2 101.9 349.9
07/05 21:20 9.1 93 8.25 8.1 19 24 1024.1 0.6 19.1 27.1 41.3 108.1 100.6 345.4
07/05 21:10 9 93 8.2 8 19 22 1024 0.6 19.0 27.1 41.1 107.7 100.0 343.4
07/05 21:00 9.1 93 8.25 8 19 24 1024.3 0.4 19.1 27.1 41.3 108.1 100.6 345.5
07/05 20:50 9.3 91 8.18 7.9 20 24 1024.3 0.4 18.9 27.0 40.9 107.1 99.4 341.2
07/05 20:40 9.6 88 8.06 7.7 20 28 1024.4 0.4 18.6 26.7 40.2 105.3 97.3 334.0
07/05 20:30 9.8 85 7.89 7.4 24 32 1024.3 0.4 18.2 26.3 39.4 103.2 94.7 325.0
07/05 20:20 9.8 84 7.8 7.2 28 35 1024.1 0.4 18.1 26.2 39.0 102.1 93.5 320.6
07/05 20:10 9.7 84 7.75 7.1 24 30 1024.1 0.4 18.0 26.1 38.9 101.7 92.9 318.6
07/05 20:00 9.5 85 7.74 7.1 17 26 1024.1 0.4 17.9 26.2 38.9 101.9 93.0 319.0

Last Refresh: 08-May-2026 12:08:49

Bureau of Meteorology